sensor_id;sensor_type;location;lat;lon;timestamp;pressure;altitude;pressure_sealevel;temperature
61977;BMP280;45905;50.570;10.428;2023-05-10T00:01:29;97056.31;;;16.36
61977;BMP280;45905;50.570;10.428;2023-05-10T00:03:56;97060.19;;;16.39
61977;BMP280;45905;50.570;10.428;2023-05-10T00:06:23;97065.53;;;16.37
61977;BMP280;45905;50.570;10.428;2023-05-10T00:08:51;97060.84;;;16.34
61977;BMP280;45905;50.570;10.428;2023-05-10T00:11:18;97051.03;;;16.31
61977;BMP280;45905;50.570;10.428;2023-05-10T00:13:49;97052.22;;;16.29
61977;BMP280;45905;50.570;10.428;2023-05-10T00:16:16;97061.91;;;16.27
61977;BMP280;45905;50.570;10.428;2023-05-10T00:18:43;97046.78;;;16.25
61977;BMP280;45905;50.570;10.428;2023-05-10T00:21:11;97055.25;;;16.20
61977;BMP280;45905;50.570;10.428;2023-05-10T00:23:38;97054.25;;;16.21
61977;BMP280;45905;50.570;10.428;2023-05-10T00:26:06;97053.28;;;16.22
61977;BMP280;45905;50.570;10.428;2023-05-10T00:28:33;97056.03;;;16.20
61977;BMP280;45905;50.570;10.428;2023-05-10T00:31:02;97050.38;;;16.18
61977;BMP280;45905;50.570;10.428;2023-05-10T00:33:29;97048.03;;;16.17
61977;BMP280;45905;50.570;10.428;2023-05-10T00:35:57;97050.59;;;16.17
61977;BMP280;45905;50.570;10.428;2023-05-10T00:38:25;97044.31;;;16.13
61977;BMP280;45905;50.570;10.428;2023-05-10T00:40:52;97044.50;;;16.11
61977;BMP280;45905;50.570;10.428;2023-05-10T00:43:26;97046.72;;;16.08
61977;BMP280;45905;50.570;10.428;2023-05-10T00:45:53;97044.56;;;16.05
61977;BMP280;45905;50.570;10.428;2023-05-10T00:48:21;97043.78;;;16.04
61977;BMP280;45905;50.570;10.428;2023-05-10T00:50:49;97035.78;;;16.01
61977;BMP280;45905;50.570;10.428;2023-05-10T00:53:18;97044.44;;;16.00
61977;BMP280;45905;50.570;10.428;2023-05-10T00:55:45;97039.72;;;15.97
61977;BMP280;45905;50.570;10.428;2023-05-10T00:58:13;97033.44;;;15.93
61977;BMP280;45905;50.570;10.428;2023-05-10T01:00:42;97036.22;;;15.92
61977;BMP280;45905;50.570;10.428;2023-05-10T01:03:11;97037.41;;;15.89
61977;BMP280;45905;50.570;10.428;2023-05-10T01:05:38;97043.50;;;15.88
61977;BMP280;45905;50.570;10.428;2023-05-10T01:08:06;97047.44;;;15.84
61977;BMP280;45905;50.570;10.428;2023-05-10T01:10:35;97029.81;;;15.83
61977;BMP280;45905;50.570;10.428;2023-05-10T01:13:03;97028.22;;;15.82
61977;BMP280;45905;50.570;10.428;2023-05-10T01:15:31;97030.97;;;15.81
61977;BMP280;45905;50.570;10.428;2023-05-10T01:17:59;97033.75;;;15.79
61977;BMP280;45905;50.570;10.428;2023-05-10T01:20:36;97031.81;;;15.75
61977;BMP280;45905;50.570;10.428;2023-05-10T01:29:08;97063.38;;;15.50
61977;BMP280;45905;50.570;10.428;2023-05-10T01:32:16;97057.81;;;15.29
61977;BMP280;45905;50.570;10.428;2023-05-10T01:38:04;97042.78;;;15.08
61977;BMP280;45905;50.570;10.428;2023-05-10T01:41:17;97048.47;;;15.10
61977;BMP280;45905;50.570;10.428;2023-05-10T01:46:57;97045.91;;;15.10
61977;BMP280;45905;50.570;10.428;2023-05-10T01:49:35;97045.91;;;15.10
61977;BMP280;45905;50.570;10.428;2023-05-10T01:52:12;97040.81;;;15.10
61977;BMP280;45905;50.570;10.428;2023-05-10T01:57:37;97048.47;;;15.10
61977;BMP280;45905;50.570;10.428;2023-05-10T02:00:08;97043.56;;;15.09
61977;BMP280;45905;50.570;10.428;2023-05-10T02:02:46;97045.31;;;15.08
61977;BMP280;45905;50.570;10.428;2023-05-10T02:05:16;97040.41;;;15.07
61977;BMP280;45905;50.570;10.428;2023-05-10T02:07:45;97044.97;;;15.05
61977;BMP280;45905;50.570;10.428;2023-05-10T02:10:14;97034.19;;;15.03
61977;BMP280;45905;50.570;10.428;2023-05-10T02:12:46;97047.13;;;15.02
61977;BMP280;45905;50.570;10.428;2023-05-10T02:15:23;97044.78;;;15.00
61977;BMP280;45905;50.570;10.428;2023-05-10T02:17:55;97044.41;;;14.97
61977;BMP280;45905;50.570;10.428;2023-05-10T02:20:25;97041.28;;;14.95
61977;BMP280;45905;50.570;10.428;2023-05-10T02:22:56;97044.19;;;14.92
61977;BMP280;45905;50.570;10.428;2023-05-10T02:25:25;97048.13;;;14.88
61977;BMP280;45905;50.570;10.428;2023-05-10T02:27:55;97049.91;;;14.81
61977;BMP280;45905;50.570;10.428;2023-05-10T02:30:24;97045.00;;;14.80
61977;BMP280;45905;50.570;10.428;2023-05-10T02:32:52;97047.00;;;14.78
61977;BMP280;45905;50.570;10.428;2023-05-10T02:35:22;97046.41;;;14.76
61977;BMP280;45905;50.570;10.428;2023-05-10T02:37:50;97048.16;;;14.75
61977;BMP280;45905;50.570;10.428;2023-05-10T02:40:21;97038.34;;;14.72
61977;BMP280;45905;50.570;10.428;2023-05-10T02:42:52;97042.09;;;14.70
61977;BMP280;45905;50.570;10.428;2023-05-10T02:45:27;97051.91;;;14.67
61977;BMP280;45905;50.570;10.428;2023-05-10T02:47:56;97047.03;;;14.59
61977;BMP280;45905;50.570;10.428;2023-05-10T02:50:27;97047.25;;;14.51
61977;BMP280;45905;50.570;10.428;2023-05-10T02:53:01;97044.09;;;14.49
61977;BMP280;45905;50.570;10.428;2023-05-10T02:55:38;97046.66;;;14.49
61977;BMP280;45905;50.570;10.428;2023-05-10T02:58:07;97040.59;;;14.50
61977;BMP280;45905;50.570;10.428;2023-05-10T03:00:34;97037.84;;;14.51
61977;BMP280;45905;50.570;10.428;2023-05-10T03:03:03;97043.72;;;14.52
61977;BMP280;45905;50.570;10.428;2023-05-10T03:05:30;97046.28;;;14.52
61977;BMP280;45905;50.570;10.428;2023-05-10T03:08:00;97039.59;;;14.51
61977;BMP280;45905;50.570;10.428;2023-05-10T03:10:33;97044.09;;;14.49
61977;BMP280;45905;50.570;10.428;2023-05-10T03:13:31;97036.47;;;14.49
61977;BMP280;45905;50.570;10.428;2023-05-10T03:16:15;97039.59;;;14.51
61977;BMP280;45905;50.570;10.428;2023-05-10T03:18:59;97043.91;;;14.50
61977;BMP280;45905;50.570;10.428;2023-05-10T03:21:30;97039.00;;;14.49
61977;BMP280;45905;50.570;10.428;2023-05-10T03:24:05;97045.69;;;14.50
61977;BMP280;45905;50.570;10.428;2023-05-10T03:26:36;97045.09;;;14.48
61977;BMP280;45905;50.570;10.428;2023-05-10T03:29:12;97045.28;;;14.47
61977;BMP280;45905;50.570;10.428;2023-05-10T03:31:41;97054.91;;;14.38
61977;BMP280;45905;50.570;10.428;2023-05-10T03:34:08;97059.03;;;14.27
61977;BMP280;45905;50.570;10.428;2023-05-10T03:36:36;97055.72;;;14.26
61977;BMP280;45905;50.570;10.428;2023-05-10T03:39:03;97064.69;;;14.29
61977;BMP280;45905;50.570;10.428;2023-05-10T03:41:30;97068.44;;;14.26
61977;BMP280;45905;50.570;10.428;2023-05-10T03:43:57;97059.03;;;14.27
61977;BMP280;45905;50.570;10.428;2023-05-10T03:46:24;97056.09;;;14.23
61977;BMP280;45905;50.570;10.428;2023-05-10T03:48:52;97058.63;;;14.30
61977;BMP280;45905;50.570;10.428;2023-05-10T03:51:19;97061.00;;;14.31
61977;BMP280;45905;50.570;10.428;2023-05-10T03:53:48;97065.28;;;14.31
61977;BMP280;45905;50.570;10.428;2023-05-10T03:56:15;97058.63;;;14.30
61977;BMP280;45905;50.570;10.428;2023-05-10T03:58:42;97057.06;;;14.29
61977;BMP280;45905;50.570;10.428;2023-05-10T04:01:09;97056.09;;;14.30
61977;BMP280;45905;50.570;10.428;2023-05-10T04:03:37;97064.31;;;14.31
61977;BMP280;45905;50.570;10.428;2023-05-10T04:06:05;97068.44;;;14.32
61977;BMP280;45905;50.570;10.428;2023-05-10T04:08:32;97077.66;;;14.33
61977;BMP280;45905;50.570;10.428;2023-05-10T04:11:08;97071.56;;;14.34
61977;BMP280;45905;50.570;10.428;2023-05-10T04:13:36;97079.22;;;14.34
61977;BMP280;45905;50.570;10.428;2023-05-10T04:16:04;97083.34;;;14.35
61977;BMP280;45905;50.570;10.428;2023-05-10T04:18:31;97077.81;;;14.38
61977;BMP280;45905;50.570;10.428;2023-05-10T04:20:59;97076.66;;;14.41
61977;BMP280;45905;50.570;10.428;2023-05-10T04:23:27;97071.56;;;14.41
61977;BMP280;45905;50.570;10.428;2023-05-10T04:26:01;97080.59;;;14.43
61977;BMP280;45905;50.570;10.428;2023-05-10T04:28:28;97079.00;;;14.42
61977;BMP280;45905;50.570;10.428;2023-05-10T04:31:08;97085.69;;;14.43
61977;BMP280;45905;50.570;10.428;2023-05-10T04:33:36;97081.38;;;14.44
61977;BMP280;45905;50.570;10.428;2023-05-10T04:36:04;97090.34;;;14.46
61977;BMP280;45905;50.570;10.428;2023-05-10T04:38:31;97089.56;;;14.46
61977;BMP280;45905;50.570;10.428;2023-05-10T04:41:09;97088.00;;;14.51
61977;BMP280;45905;50.570;10.428;2023-05-10T04:43:37;97095.66;;;14.51
61977;BMP280;45905;50.570;10.428;2023-05-10T04:46:05;97101.94;;;14.49
61977;BMP280;45905;50.570;10.428;2023-05-10T04:48:34;97095.06;;;14.49
61977;BMP280;45905;50.570;10.428;2023-05-10T04:51:01;97109.38;;;14.50
61977;BMP280;45905;50.570;10.428;2023-05-10T04:53:30;97104.66;;;14.47
61977;BMP280;45905;50.570;10.428;2023-05-10T04:55:57;97107.22;;;14.47
61977;BMP280;45905;50.570;10.428;2023-05-10T04:58:25;97101.16;;;14.48
61977;BMP280;45905;50.570;10.428;2023-05-10T05:00:53;97111.34;;;14.48
61977;BMP280;45905;50.570;10.428;2023-05-10T05:03:20;97115.06;;;14.52
61977;BMP280;45905;50.570;10.428;2023-05-10T05:05:48;97115.63;;;14.54
61977;BMP280;45905;50.570;10.428;2023-05-10T05:08:15;97119.75;;;14.55
61977;BMP280;45905;50.570;10.428;2023-05-10T05:10:43;97115.63;;;14.54
61977;BMP280;45905;50.570;10.428;2023-05-10T05:13:12;97124.84;;;14.55
61977;BMP280;45905;50.570;10.428;2023-05-10T05:15:40;97131.50;;;14.56
61977;BMP280;45905;50.570;10.428;2023-05-10T05:18:08;97131.16;;;14.52
61977;BMP280;45905;50.570;10.428;2023-05-10T05:20:35;97141.34;;;14.52
61977;BMP280;45905;50.570;10.428;2023-05-10T05:23:02;97147.22;;;14.53
61977;BMP280;45905;50.570;10.428;2023-05-10T05:25:29;97156.22;;;14.55
61977;BMP280;45905;50.570;10.428;2023-05-10T05:27:56;97150.13;;;14.56
61977;BMP280;45905;50.570;10.428;2023-05-10T05:30:23;97148.19;;;14.58
61977;BMP280;45905;50.570;10.428;2023-05-10T05:32:51;97154.66;;;14.61
61977;BMP280;45905;50.570;10.428;2023-05-10T05:35:18;97156.78;;;14.64
61977;BMP280;45905;50.570;10.428;2023-05-10T05:37:45;97158.00;;;14.61
61977;BMP280;45905;50.570;10.428;2023-05-10T05:40:13;97164.84;;;14.61
61977;BMP280;45905;50.570;10.428;2023-05-10T05:42:41;97168.38;;;14.60
61977;BMP280;45905;50.570;10.428;2023-05-10T05:45:09;97160.94;;;14.58
61977;BMP280;45905;50.570;10.428;2023-05-10T05:47:40;97163.66;;;14.57
61977;BMP280;45905;50.570;10.428;2023-05-10T05:50:08;97175.03;;;14.54
61977;BMP280;45905;50.570;10.428;2023-05-10T05:52:35;97176.22;;;14.52
61977;BMP280;45905;50.570;10.428;2023-05-10T05:55:03;97179.34;;;14.54
61977;BMP280;45905;50.570;10.428;2023-05-10T05:57:30;97180.91;;;14.55
61977;BMP280;45905;50.570;10.428;2023-05-10T05:59:57;97184.25;;;14.55
61977;BMP280;45905;50.570;10.428;2023-05-10T06:02:24;97182.91;;;14.53
61977;BMP280;45905;50.570;10.428;2023-05-10T06:04:52;97197.59;;;14.51
61977;BMP280;45905;50.570;10.428;2023-05-10T06:07:19;97197.00;;;14.43
61977;BMP280;45905;50.570;10.428;2023-05-10T06:09:47;97196.59;;;14.39
61977;BMP280;45905;50.570;10.428;2023-05-10T06:12:14;97210.72;;;14.35
61977;BMP280;45905;50.570;10.428;2023-05-10T06:14:41;97207.94;;;14.31
61977;BMP280;45905;50.570;10.428;2023-05-10T06:17:08;97210.09;;;14.21
61977;BMP280;45905;50.570;10.428;2023-05-10T06:19:35;97207.16;;;14.24
61977;BMP280;45905;50.570;10.428;2023-05-10T06:22:03;97205.41;;;14.24
61977;BMP280;45905;50.570;10.428;2023-05-10T06:24:30;97209.09;;;14.28
61977;BMP280;45905;50.570;10.428;2023-05-10T06:26:57;97216.00;;;14.34
61977;BMP280;45905;50.570;10.428;2023-05-10T06:29:26;97221.09;;;14.40
61977;BMP280;45905;50.570;10.428;2023-05-10T06:31:54;97222.06;;;14.46
61977;BMP280;45905;50.570;10.428;2023-05-10T06:34:21;97217.97;;;14.51
61977;BMP280;45905;50.570;10.428;2023-05-10T06:36:48;97210.72;;;14.54
61977;BMP280;45905;50.570;10.428;2023-05-10T06:39:16;97211.50;;;14.61
61977;BMP280;45905;50.570;10.428;2023-05-10T06:41:43;97210.31;;;14.64
61977;BMP280;45905;50.570;10.428;2023-05-10T06:44:10;97212.50;;;14.67
61977;BMP280;45905;50.570;10.428;2023-05-10T06:46:38;97213.28;;;14.67
61977;BMP280;45905;50.570;10.428;2023-05-10T06:49:05;97216.22;;;14.70
61977;BMP280;45905;50.570;10.428;2023-05-10T06:51:33;97215.81;;;14.80
61977;BMP280;45905;50.570;10.428;2023-05-10T06:54:00;97221.31;;;14.83
61977;BMP280;45905;50.570;10.428;2023-05-10T06:56:29;97214.63;;;14.88
61977;BMP280;45905;50.570;10.428;2023-05-10T06:58:56;97222.47;;;14.93
61977;BMP280;45905;50.570;10.428;2023-05-10T07:01:23;97214.25;;;14.98
61977;BMP280;45905;50.570;10.428;2023-05-10T07:03:50;97216.25;;;14.96
61977;BMP280;45905;50.570;10.428;2023-05-10T07:06:18;97221.91;;;14.98
61977;BMP280;45905;50.570;10.428;2023-05-10T07:08:59;97223.47;;;14.99
61977;BMP280;45905;50.570;10.428;2023-05-10T07:11:27;97234.66;;;14.98
61977;BMP280;45905;50.570;10.428;2023-05-10T07:13:55;97239.97;;;15.03
61977;BMP280;45905;50.570;10.428;2023-05-10T07:16:22;97230.75;;;15.02
61977;BMP280;45905;50.570;10.428;2023-05-10T07:18:49;97237.44;;;14.96
61977;BMP280;45905;50.570;10.428;2023-05-10T07:21:17;97240.16;;;14.95
61977;BMP280;45905;50.570;10.428;2023-05-10T07:23:45;97247.03;;;14.94
61977;BMP280;45905;50.570;10.428;2023-05-10T07:26:12;97250.72;;;14.92
61977;BMP280;45905;50.570;10.428;2023-05-10T07:28:39;97249.41;;;14.96
61977;BMP280;45905;50.570;10.428;2023-05-10T07:31:06;97253.09;;;15.00
61977;BMP280;45905;50.570;10.428;2023-05-10T07:33:34;97246.03;;;15.02
61977;BMP280;45905;50.570;10.428;2023-05-10T07:36:01;97251.56;;;15.05
61977;BMP280;45905;50.570;10.428;2023-05-10T07:38:28;97249.56;;;15.07
61977;BMP280;45905;50.570;10.428;2023-05-10T07:40:55;97248.97;;;15.11
61977;BMP280;45905;50.570;10.428;2023-05-10T07:43:22;97247.59;;;15.15
61977;BMP280;45905;50.570;10.428;2023-05-10T07:45:50;97248.97;;;15.18
61977;BMP280;45905;50.570;10.428;2023-05-10T07:48:19;97253.06;;;15.25
61977;BMP280;45905;50.570;10.428;2023-05-10T07:50:47;97248.34;;;15.35
61977;BMP280;45905;50.570;10.428;2023-05-10T07:53:14;97254.22;;;15.48
61977;BMP280;45905;50.570;10.428;2023-05-10T07:55:41;97247.53;;;15.53
61977;BMP280;45905;50.570;10.428;2023-05-10T07:58:08;97254.19;;;15.61
61977;BMP280;45905;50.570;10.428;2023-05-10T08:00:35;97258.88;;;15.64
61977;BMP280;45905;50.570;10.428;2023-05-10T08:03:06;97261.44;;;15.64
61977;BMP280;45905;50.570;10.428;2023-05-10T08:05:33;97263.00;;;15.58
61977;BMP280;45905;50.570;10.428;2023-05-10T08:08:02;97263.66;;;15.47
61977;BMP280;45905;50.570;10.428;2023-05-10T08:10:29;97267.56;;;15.44
61977;BMP280;45905;50.570;10.428;2023-05-10T08:12:56;97279.53;;;15.43
61977;BMP280;45905;50.570;10.428;2023-05-10T08:15:25;97272.31;;;15.40
61977;BMP280;45905;50.570;10.428;2023-05-10T08:17:52;97275.41;;;15.42
61977;BMP280;45905;50.570;10.428;2023-05-10T08:20:19;97281.31;;;15.49
61977;BMP280;45905;50.570;10.428;2023-05-10T08:22:47;97276.19;;;15.55
61977;BMP280;45905;50.570;10.428;2023-05-10T08:25:17;97284.63;;;15.62
61977;BMP280;45905;50.570;10.428;2023-05-10T08:27:45;97277.50;;;15.70
61977;BMP280;45905;50.570;10.428;2023-05-10T08:30:12;97280.84;;;15.71
61977;BMP280;45905;50.570;10.428;2023-05-10T08:32:39;97279.84;;;15.78
61977;BMP280;45905;50.570;10.428;2023-05-10T08:35:07;97282.78;;;15.82
61977;BMP280;45905;50.570;10.428;2023-05-10T08:37:34;97281.97;;;15.87
61977;BMP280;45905;50.570;10.428;2023-05-10T08:40:02;97278.63;;;15.87
61977;BMP280;45905;50.570;10.428;2023-05-10T08:42:34;97277.63;;;15.94
61977;BMP280;45905;50.570;10.428;2023-05-10T08:45:03;97277.66;;;16.01
61977;BMP280;45905;50.570;10.428;2023-05-10T08:47:31;97281.75;;;16.08
61977;BMP280;45905;50.570;10.428;2023-05-10T08:49:59;97284.47;;;16.13
61977;BMP280;45905;50.570;10.428;2023-05-10T08:52:28;97294.50;;;16.08
61977;BMP280;45905;50.570;10.428;2023-05-10T08:54:57;97298.66;;;16.09
61977;BMP280;45905;50.570;10.428;2023-05-10T08:57:24;97292.31;;;16.18
61977;BMP280;45905;50.570;10.428;2023-05-10T08:59:52;97299.97;;;16.18
61977;BMP280;45905;50.570;10.428;2023-05-10T09:02:20;97307.03;;;16.22
61977;BMP280;45905;50.570;10.428;2023-05-10T09:04:48;97301.50;;;16.25
61977;BMP280;45905;50.570;10.428;2023-05-10T09:07:16;97305.41;;;16.34
61977;BMP280;45905;50.570;10.428;2023-05-10T09:09:45;97301.41;;;16.44
61977;BMP280;45905;50.570;10.428;2023-05-10T09:12:13;97308.25;;;16.50
61977;BMP280;45905;50.570;10.428;2023-05-10T09:14:44;97311.22;;;16.53
61977;BMP280;45905;50.570;10.428;2023-05-10T09:17:12;97310.56;;;16.58
61977;BMP280;45905;50.570;10.428;2023-05-10T09:19:39;97305.66;;;16.62
61977;BMP280;45905;50.570;10.428;2023-05-10T09:22:06;97316.03;;;16.67
61977;BMP280;45905;50.570;10.428;2023-05-10T09:24:33;97315.00;;;16.75
61977;BMP280;45905;50.570;10.428;2023-05-10T09:27:01;97312.97;;;16.83
61977;BMP280;45905;50.570;10.428;2023-05-10T09:29:42;97317.28;;;16.89
61977;BMP280;45905;50.570;10.428;2023-05-10T09:32:10;97315.72;;;16.88
61977;BMP280;45905;50.570;10.428;2023-05-10T09:34:39;97322.75;;;16.92
61977;BMP280;45905;50.570;10.428;2023-05-10T09:37:07;97313.72;;;16.96
61977;BMP280;45905;50.570;10.428;2023-05-10T09:39:37;97322.50;;;17.06
61977;BMP280;45905;50.570;10.428;2023-05-10T09:42:07;97323.22;;;17.13
61977;BMP280;45905;50.570;10.428;2023-05-10T09:44:36;97310.16;;;17.21
61977;BMP280;45905;50.570;10.428;2023-05-10T09:47:05;97313.03;;;17.31
61977;BMP280;45905;50.570;10.428;2023-05-10T09:49:32;97318.47;;;17.40
61977;BMP280;45905;50.570;10.428;2023-05-10T09:52:07;97321.16;;;17.45
61977;BMP280;45905;50.570;10.428;2023-05-10T09:54:35;97321.16;;;17.45
61977;BMP280;45905;50.570;10.428;2023-05-10T09:57:03;97319.47;;;17.39
61977;BMP280;45905;50.570;10.428;2023-05-10T09:59:32;97315.72;;;17.36
61977;BMP280;45905;50.570;10.428;2023-05-10T10:02:02;97316.50;;;17.36
61977;BMP280;45905;50.570;10.428;2023-05-10T10:04:29;97316.72;;;17.35
61977;BMP280;45905;50.570;10.428;2023-05-10T10:07:04;97313.81;;;17.31
61977;BMP280;45905;50.570;10.428;2023-05-10T10:09:33;97322.28;;;17.32
61977;BMP280;45905;50.570;10.428;2023-05-10T10:12:02;97324.84;;;17.32
61977;BMP280;45905;50.570;10.428;2023-05-10T10:14:30;97325.84;;;17.31
61977;BMP280;45905;50.570;10.428;2023-05-10T10:17:00;97330.09;;;17.37
61977;BMP280;45905;50.570;10.428;2023-05-10T10:19:35;97330.50;;;17.34
61977;BMP280;45905;50.570;10.428;2023-05-10T10:22:04;97324.97;;;17.37
61977;BMP280;45905;50.570;10.428;2023-05-10T10:24:31;97332.59;;;17.43
61977;BMP280;45905;50.570;10.428;2023-05-10T10:27:36;97336.91;;;17.49
61977;BMP280;45905;50.570;10.428;2023-05-10T10:30:27;97336.69;;;17.50
61977;BMP280;45905;50.570;10.428;2023-05-10T10:33:33;97337.50;;;17.44
61977;BMP280;45905;50.570;10.428;2023-05-10T10:36:03;97342.75;;;17.32
61977;BMP280;45905;50.570;10.428;2023-05-10T10:38:54;97348.88;;;17.31
61977;BMP280;45905;50.570;10.428;2023-05-10T10:41:35;97344.00;;;17.23
61977;BMP280;45905;50.570;10.428;2023-05-10T10:47:20;97339.16;;;17.15
61977;BMP280;45905;50.570;10.428;2023-05-10T10:52:35;97331.63;;;17.20
61977;BMP280;45905;50.570;10.428;2023-05-10T10:55:20;97330.84;;;17.19
61977;BMP280;45905;50.570;10.428;2023-05-10T10:57:56;97336.94;;;17.18
61977;BMP280;45905;50.570;10.428;2023-05-10T11:00:36;97333.13;;;17.27
61977;BMP280;45905;50.570;10.428;2023-05-10T11:03:06;97341.59;;;17.28
61977;BMP280;45905;50.570;10.428;2023-05-10T11:05:49;97337.06;;;17.30
61977;BMP280;45905;50.570;10.428;2023-05-10T11:08:29;97335.91;;;17.26
61977;BMP280;45905;50.570;10.428;2023-05-10T11:13:45;97337.59;;;17.14
61977;BMP280;45905;50.570;10.428;2023-05-10T11:16:23;97339.56;;;17.12
61977;BMP280;45905;50.570;10.428;2023-05-10T11:19:07;97334.44;;;17.12
61977;BMP280;45905;50.570;10.428;2023-05-10T11:24:30;97342.84;;;17.19
61977;BMP280;45905;50.570;10.428;2023-05-10T11:26:57;97347.75;;;17.20
61977;BMP280;45905;50.570;10.428;2023-05-10T11:29:24;97343.69;;;17.13
61977;BMP280;45905;50.570;10.428;2023-05-10T11:31:58;97349.16;;;17.17
61977;BMP280;45905;50.570;10.428;2023-05-10T11:34:31;97349.41;;;17.15
61977;BMP280;45905;50.570;10.428;2023-05-10T11:37:01;97352.69;;;17.22
61977;BMP280;45905;50.570;10.428;2023-05-10T11:39:30;97355.81;;;17.24
61977;BMP280;45905;50.570;10.428;2023-05-10T11:41:58;97363.50;;;17.24
61977;BMP280;45905;50.570;10.428;2023-05-10T11:44:30;97368.25;;;17.20
61977;BMP280;45905;50.570;10.428;2023-05-10T11:47:00;97367.66;;;17.18
61977;BMP280;45905;50.570;10.428;2023-05-10T11:49:27;97364.75;;;17.15
61977;BMP280;45905;50.570;10.428;2023-05-10T11:52:08;97370.66;;;17.16
61977;BMP280;45905;50.570;10.428;2023-05-10T11:54:35;97369.44;;;17.18
61977;BMP280;45905;50.570;10.428;2023-05-10T11:57:03;97366.88;;;17.18
61977;BMP280;45905;50.570;10.428;2023-05-10T11:59:30;97372.78;;;17.18
61977;BMP280;45905;50.570;10.428;2023-05-10T12:01:58;97366.47;;;17.21
61977;BMP280;45905;50.570;10.428;2023-05-10T12:04:26;97361.94;;;17.23
61977;BMP280;45905;50.570;10.428;2023-05-10T12:06:54;97362.28;;;17.26
61977;BMP280;45905;50.570;10.428;2023-05-10T12:09:22;97364.22;;;17.31
61977;BMP280;45905;50.570;10.428;2023-05-10T12:11:56;97368.91;;;17.34
61977;BMP280;45905;50.570;10.428;2023-05-10T12:14:24;97368.69;;;17.35
61977;BMP280;45905;50.570;10.428;2023-05-10T12:16:51;97366.72;;;17.37
61977;BMP280;45905;50.570;10.428;2023-05-10T12:19:19;97379.13;;;17.40
61977;BMP280;45905;50.570;10.428;2023-05-10T12:21:49;97374.78;;;17.40
61977;BMP280;45905;50.570;10.428;2023-05-10T12:24:16;97379.47;;;17.43
61977;BMP280;45905;50.570;10.428;2023-05-10T12:26:47;97375.91;;;17.44
61977;BMP280;45905;50.570;10.428;2023-05-10T12:29:17;97381.03;;;17.44
61977;BMP280;45905;50.570;10.428;2023-05-10T12:31:59;97377.50;;;17.45
61977;BMP280;45905;50.570;10.428;2023-05-10T12:34:33;97381.03;;;17.44
61977;BMP280;45905;50.570;10.428;2023-05-10T12:37:02;97388.31;;;17.47
61977;BMP280;45905;50.570;10.428;2023-05-10T12:39:41;97385.75;;;17.47
61977;BMP280;45905;50.570;10.428;2023-05-10T12:42:09;97395.78;;;17.49
61977;BMP280;45905;50.570;10.428;2023-05-10T12:44:37;97392.78;;;17.52
61977;BMP280;45905;50.570;10.428;2023-05-10T12:47:04;97394.75;;;17.56
61977;BMP280;45905;50.570;10.428;2023-05-10T12:49:31;97397.72;;;17.53
61977;BMP280;45905;50.570;10.428;2023-05-10T12:51:59;97400.19;;;17.42
61977;BMP280;45905;50.570;10.428;2023-05-10T12:54:26;97397.25;;;17.38
61977;BMP280;45905;50.570;10.428;2023-05-10T12:56:53;97396.09;;;17.35
61977;BMP280;45905;50.570;10.428;2023-05-10T12:59:20;97402.28;;;17.21
61977;BMP280;45905;50.570;10.428;2023-05-10T13:01:47;97401.97;;;17.11
61977;BMP280;45905;50.570;10.428;2023-05-10T13:04:14;97403.34;;;17.07
61977;BMP280;45905;50.570;10.428;2023-05-10T13:06:41;97411.03;;;17.07
61977;BMP280;45905;50.570;10.428;2023-05-10T13:09:08;97406.53;;;17.03
61977;BMP280;45905;50.570;10.428;2023-05-10T13:11:35;97414.44;;;17.01
61977;BMP280;45905;50.570;10.428;2023-05-10T13:14:03;97410.28;;;17.00
61977;BMP280;45905;50.570;10.428;2023-05-10T13:16:31;97407.53;;;17.02
61977;BMP280;45905;50.570;10.428;2023-05-10T13:18:58;97402.63;;;17.00
61977;BMP280;45905;50.570;10.428;2023-05-10T13:21:26;97409.72;;;16.99
61977;BMP280;45905;50.570;10.428;2023-05-10T13:23:53;97406.53;;;17.03
61977;BMP280;45905;50.570;10.428;2023-05-10T13:26:20;97408.69;;;17.06
61977;BMP280;45905;50.570;10.428;2023-05-10T13:28:48;97403.75;;;17.11
61977;BMP280;45905;50.570;10.428;2023-05-10T13:31:16;97404.13;;;17.14
61977;BMP280;45905;50.570;10.428;2023-05-10T13:33:43;97395.59;;;17.20
61977;BMP280;45905;50.570;10.428;2023-05-10T13:36:10;97401.91;;;17.24
61977;BMP280;45905;50.570;10.428;2023-05-10T13:38:37;97403.22;;;17.26
61977;BMP280;45905;50.570;10.428;2023-05-10T13:41:04;97413.06;;;17.29
61977;BMP280;45905;50.570;10.428;2023-05-10T13:43:32;97409.91;;;17.27
61977;BMP280;45905;50.570;10.428;2023-05-10T13:45:59;97404.00;;;17.27
61977;BMP280;45905;50.570;10.428;2023-05-10T13:48:27;97404.81;;;17.27
61977;BMP280;45905;50.570;10.428;2023-05-10T13:50:54;97405.19;;;17.31
61977;BMP280;45905;50.570;10.428;2023-05-10T13:53:21;97397.06;;;17.34
61977;BMP280;45905;50.570;10.428;2023-05-10T13:55:49;97400.00;;;17.37
61977;BMP280;45905;50.570;10.428;2023-05-10T13:58:16;97396.06;;;17.41
61977;BMP280;45905;50.570;10.428;2023-05-10T14:00:43;97406.66;;;17.44
61977;BMP280;45905;50.570;10.428;2023-05-10T14:03:10;97405.25;;;17.48
61977;BMP280;45905;50.570;10.428;2023-05-10T14:05:38;97412.56;;;17.45
61977;BMP280;45905;50.570;10.428;2023-05-10T14:08:05;97407.28;;;17.40
61977;BMP280;45905;50.570;10.428;2023-05-10T14:10:33;97405.59;;;17.28
61977;BMP280;45905;50.570;10.428;2023-05-10T14:13:00;97405.25;;;17.24
61977;BMP280;45905;50.570;10.428;2023-05-10T14:15:28;97412.69;;;17.26
61977;BMP280;45905;50.570;10.428;2023-05-10T14:17:55;97409.19;;;17.20
61977;BMP280;45905;50.570;10.428;2023-05-10T14:20:22;97409.97;;;17.21
61977;BMP280;45905;50.570;10.428;2023-05-10T14:22:49;97406.63;;;17.20
61977;BMP280;45905;50.570;10.428;2023-05-10T14:25:17;97409.19;;;17.20
61977;BMP280;45905;50.570;10.428;2023-05-10T14:27:44;97414.72;;;17.18
61977;BMP280;45905;50.570;10.428;2023-05-10T14:30:12;97416.16;;;17.07
61977;BMP280;45905;50.570;10.428;2023-05-10T14:32:39;97409.72;;;16.92
61977;BMP280;45905;50.570;10.428;2023-05-10T14:35:07;97402.91;;;16.80
61977;BMP280;45905;50.570;10.428;2023-05-10T14:37:36;97419.59;;;16.82